Time;durP1;ratioP1;P1;durP2;ratioP2;P2;SDS_P1;SDS_P2;PMS_P1;PMS_P2;Temp;Humidity;BMP_temperature;BMP_pressure;BME280_temperature;BME280_humidity;BME280_pressure;Samples;Min_cycle;Max_cycle;Signal;HPM_P1;HPM_P2
2023/10/14 08:13:22;;;;;;;5.35;4.70;;;;;;;;;;5279366;23;20504;-68
2023/10/14 08:15:51;;;;;;;5.63;4.90;;;;;;;;;;4956675;28;20067;-68
2023/10/14 08:18:25;;;;;;;5.78;4.63;;;;;;;;;;4956634;28;20026;-68
2023/10/14 08:20:53;;;;;;;4.80;4.30;;;;;;;;;;4974000;28;20069;-68
2023/10/14 08:23:23;;;;;;;4.90;4.40;;;;;;;;;;4974185;28;20082;-68
2023/10/14 08:25:53;;;;;;;6.85;4.88;;;;;;;;;;4974012;28;20042;-67
2023/10/14 08:28:23;;;;;;;8.48;4.60;;;;;;;;;;4973932;28;20035;-68
2023/10/14 08:30:51;;;;;;;5.22;4.72;;;;;;;;;;4974199;28;20030;-68
2023/10/14 08:33:19;;;;;;;4.45;4.05;;;;;;;;;;4973851;28;20034;-67
2023/10/14 08:35:45;;;;;;;5.97;4.95;;;;;;;;;;4974235;28;20038;-67
2023/10/14 08:38:14;;;;;;;5.25;4.75;;;;;;;;;;4973864;28;20027;-67
2023/10/14 08:40:41;;;;;;;5.75;4.88;;;;;;;;;;4973168;28;20109;-67
2023/10/14 08:43:15;;;;;;;5.15;4.70;;;;;;;;;;4973602;28;20042;-68
2023/10/14 08:45:47;;;;;;;5.15;4.65;;;;;;;;;;4973601;28;20035;-68
2023/10/14 08:48:18;;;;;;;5.30;4.63;;;;;;;;;;4973677;28;20055;-67
2023/10/14 08:50:49;;;;;;;5.15;4.55;;;;;;;;;;4973535;28;20110;-69
2023/10/14 08:53:21;;;;;;;4.63;4.22;;;;;;;;;;4973521;28;20085;-68
2023/10/14 08:55:47;;;;;;;5.82;4.97;;;;;;;;;;4973435;28;20033;-68
2023/10/14 08:58:14;;;;;;;6.18;4.82;;;;;;;;;;4973548;28;20019;-68
2023/10/14 09:00:42;;;;;;;7.88;4.90;;;;;;;;;;4973464;28;20030;-68
2023/10/14 09:03:11;;;;;;;5.10;4.60;;;;;;;;;;4973337;28;20030;-68
2023/10/14 09:05:41;;;;;;;5.20;4.70;;;;;;;;;;4973431;28;20023;-68
2023/10/14 09:08:19;;;;;;;6.35;5.13;;;;;;;;;;4973435;28;20027;-67
2023/10/14 09:10:45;;;;;;;5.32;4.82;;;;;;;;;;4973483;28;20034;-68
2023/10/14 09:13:12;;;;;;;5.35;4.85;;;;;;;;;;4973334;28;20070;-68
2023/10/14 09:15:42;;;;;;;6.03;4.80;;;;;;;;;;4973461;28;20642;-67
2023/10/14 09:18:16;;;;;;;7.38;4.80;;;;;;;;;;4973685;28;20162;-68
2023/10/14 09:20:43;;;;;;;6.15;5.20;;;;;;;;;;4973478;28;20611;-68
2023/10/14 09:23:44;;;;;;;5.55;5.05;;;;;;;;;;4973307;28;20035;-68
2023/10/14 09:26:10;;;;;;;5.75;4.47;;;;;;;;;;4972487;28;20086;-67
2023/10/14 09:28:40;;;;;;;5.35;4.85;;;;;;;;;;4970586;28;20110;-69
2023/10/14 09:31:09;;;;;;;6.88;4.88;;;;;;;;;;4959478;28;20035;-68
2023/10/14 09:33:41;;;;;;;5.82;5.00;;;;;;;;;;4959123;28;20106;-68
2023/10/14 09:36:14;;;;;;;8.88;4.88;;;;;;;;;;4958863;28;20028;-68
2023/10/14 09:38:41;;;;;;;6.07;5.25;;;;;;;;;;4959863;28;20075;-69
2023/10/14 09:41:10;;;;;;;6.55;5.45;;;;;;;;;;4958895;28;20119;-68
2023/10/14 09:43:42;;;;;;;5.38;4.88;;;;;;;;;;4958923;28;20054;-67
2023/10/14 09:46:11;;;;;;;6.82;5.07;;;;;;;;;;4953070;28;20034;-67
2023/10/14 09:48:37;;;;;;;6.45;5.43;;;;;;;;;;4953997;29;20024;-67
2023/10/14 09:51:05;;;;;;;6.40;4.65;;;;;;;;;;4953903;28;20452;-67
2023/10/14 09:53:36;;;;;;;6.32;4.65;;;;;;;;;;4956908;28;20038;-67
2023/10/14 09:56:10;;;;;;;6.70;5.10;;;;;;;;;;4957395;29;20510;-67
2023/10/14 09:58:43;;;;;;;10.50;5.30;;;;;;;;;;4957329;29;20031;-66
2023/10/14 10:01:17;;;;;;;5.82;5.07;;;;;;;;;;4957381;29;20054;-66
2023/10/14 10:04:10;;;;;;;6.05;5.32;;;;;;;;;;4957229;29;20110;-65
2023/10/14 10:07:23;;;;;;;8.15;5.57;;;;;;;;;;4957274;29;20112;-66
2023/10/14 10:09:57;;;;;;;5.60;5.07;;;;;;;;;;4948143;29;20065;-66
2023/10/14 10:12:25;;;;;;;6.47;5.40;;;;;;;;;;4956982;29;20101;-66
2023/10/14 10:14:58;;;;;;;7.10;5.47;;;;;;;;;;4957292;29;20440;-67
2023/10/14 10:17:26;;;;;;;7.55;5.25;;;;;;;;;;4957199;29;20451;-66
2023/10/14 10:20:09;;;;;;;6.57;5.05;;;;;;;;;;4957118;29;20492;-66
2023/10/14 10:22:56;;;;;;;7.43;5.57;;;;;;;;;;4956932;29;20042;-66
2023/10/14 10:25:37;;;;;;;8.40;5.53;;;;;;;;;;4956938;29;20540;-66
2023/10/14 10:28:25;;;;;;;7.03;5.18;;;;;;;;;;4956802;29;20154;-66
2023/10/14 10:30:52;;;;;;;8.48;5.88;;;;;;;;;;4956781;28;20035;-66
2023/10/14 10:33:18;;;;;;;6.45;5.22;;;;;;;;;;4956607;28;20034;-67
2023/10/14 10:35:57;;;;;;;6.47;5.35;;;;;;;;;;4956640;29;20514;-66
2023/10/14 10:38:23;;;;;;;6.63;5.65;;;;;;;;;;4956480;29;20384;-67
2023/10/14 10:41:18;;;;;;;9.68;5.72;;;;;;;;;;4956656;29;20031;-67
2023/10/14 10:43:46;;;;;;;7.63;6.07;;;;;;;;;;4960211;28;20030;-66
2023/10/14 10:46:37;;;;;;;8.82;5.68;;;;;;;;;;4972335;28;20435;-67
2023/10/14 10:49:06;;;;;;;8.20;5.38;;;;;;;;;;4956320;29;20023;-67
2023/10/14 10:51:34;;;;;;;9.13;6.05;;;;;;;;;;4954681;29;20050;-66
2023/10/14 10:54:02;;;;;;;10.27;6.00;;;;;;;;;;4955353;29;20091;-67
2023/10/14 10:56:29;;;;;;;7.88;5.55;;;;;;;;;;4955223;28;20031;-67
2023/10/14 10:58:57;;;;;;;9.68;5.80;;;;;;;;;;4954914;28;20031;-67
2023/10/14 11:01:23;;;;;;;7.72;5.40;;;;;;;;;;4954439;28;20027;-67
2023/10/14 11:03:49;;;;;;;7.43;5.85;;;;;;;;;;4953866;28;20109;-67
2023/10/14 11:06:17;;;;;;;12.05;5.50;;;;;;;;;;4955823;29;20027;-67
2023/10/14 11:08:46;;;;;;;7.93;5.40;;;;;;;;;;4956088;28;20027;-67
2023/10/14 11:11:13;;;;;;;10.07;6.68;;;;;;;;;;4956377;29;20031;-67
2023/10/14 11:13:39;;;;;;;7.95;6.60;;;;;;;;;;4955873;29;20047;-67
2023/10/14 11:16:14;;;;;;;7.88;6.32;;;;;;;;;;4955983;29;20038;-67
2023/10/14 11:18:48;;;;;;;14.80;6.50;;;;;;;;;;4956023;29;20029;-67
2023/10/14 11:21:14;;;;;;;7.35;6.05;;;;;;;;;;4955874;29;20028;-67
2023/10/14 11:23:41;;;;;;;9.65;5.80;;;;;;;;;;4955744;28;20038;-67
2023/10/14 11:26:12;;;;;;;7.75;6.13;;;;;;;;;;4956059;29;20094;-67
2023/10/14 11:28:39;;;;;;;7.63;5.22;;;;;;;;;;4955699;29;20027;-67
2023/10/14 11:31:07;;;;;;;6.53;5.05;;;;;;;;;;4955670;28;20035;-67
2023/10/14 11:33:37;;;;;;;9.05;5.75;;;;;;;;;;4955614;28;20373;-67
2023/10/14 11:36:03;;;;;;;6.93;5.47;;;;;;;;;;4955609;29;20106;-68
2023/10/14 11:38:31;;;;;;;7.50;5.28;;;;;;;;;;4955620;29;20035;-67
2023/10/14 11:41:02;;;;;;;8.43;6.30;;;;;;;;;;4955495;29;20023;-67
2023/10/14 11:43:28;;;;;;;8.48;5.90;;;;;;;;;;4955368;29;20476;-67
2023/10/14 11:45:56;;;;;;;9.38;6.55;;;;;;;;;;4955733;28;20069;-67
2023/10/14 11:48:26;;;;;;;6.95;6.25;;;;;;;;;;4955658;28;20508;-67
2023/10/14 11:51:00;;;;;;;9.02;7.65;;;;;;;;;;4955635;29;20211;-68
2023/10/14 11:53:27;;;;;;;9.93;7.82;;;;;;;;;;4955301;29;20050;-67
2023/10/14 11:55:58;;;;;;;9.23;7.50;;;;;;;;;;4955569;29;20055;-67
2023/10/14 11:58:28;;;;;;;9.20;7.07;;;;;;;;;;4955342;29;20042;-67
2023/10/14 12:00:54;;;;;;;7.82;6.50;;;;;;;;;;4955221;29;20023;-67
2023/10/14 12:03:20;;;;;;;6.55;5.70;;;;;;;;;;4955335;29;20472;-68
2023/10/14 12:05:46;;;;;;;8.27;7.05;;;;;;;;;;4955065;29;20045;-68
2023/10/14 12:08:12;;;;;;;9.60;6.20;;;;;;;;;;4955339;29;20034;-68
2023/10/14 12:10:37;;;;;;;5.95;5.30;;;;;;;;;;4955009;29;20027;-67
2023/10/14 12:13:03;;;;;;;6.97;6.07;;;;;;;;;;4950862;28;20404;-69
2023/10/14 12:15:35;;;;;;;8.07;5.80;;;;;;;;;;4952026;28;20496;-69
2023/10/14 12:18:01;;;;;;;10.00;6.00;;;;;;;;;;4954922;29;20033;-69
2023/10/14 12:20:29;;;;;;;7.15;5.72;;;;;;;;;;4954638;29;20078;-68
2023/10/14 12:22:54;;;;;;;9.82;6.03;;;;;;;;;;4954721;29;20027;-69
2023/10/14 12:25:20;;;;;;;10.85;6.72;;;;;;;;;;4954900;29;20427;-69
2023/10/14 12:27:48;;;;;;;10.70;6.22;;;;;;;;;;4954658;28;20031;-70
2023/10/14 12:30:59;;;;;;;11.82;6.05;;;;;;;;;;4954668;29;20472;-71
2023/10/14 12:33:04;;;;;;;9.38;6.00;;;;;;;;;;4947632;29;20043;-70
2023/10/14 12:35:39;;;;;;;11.02;6.15;;;;;;;;;;4954881;29;20023;-69
2023/10/14 12:38:11;;;;;;;12.02;6.60;;;;;;;;;;4954652;29;20037;-69
2023/10/14 12:40:37;;;;;;;12.35;6.10;;;;;;;;;;4954873;29;20035;-67
2023/10/14 12:43:03;;;;;;;12.93;6.22;;;;;;;;;;4954611;29;20031;-69
2023/10/14 12:45:28;;;;;;;11.27;6.03;;;;;;;;;;4937367;29;20388;-68
2023/10/14 12:48:00;;;;;;;12.05;6.45;;;;;;;;;;4954448;28;20030;-69
2023/10/14 12:50:26;;;;;;;14.45;5.93;;;;;;;;;;4954520;29;20034;-67
2023/10/14 12:53:00;;;;;;;9.20;6.18;;;;;;;;;;4954432;28;20110;-70
2023/10/14 12:55:26;;;;;;;8.88;6.38;;;;;;;;;;4954464;29;20023;-70
2023/10/14 12:57:52;;;;;;;13.75;5.80;;;;;;;;;;4954323;29;20061;-71
2023/10/14 13:00:25;;;;;;;8.95;5.80;;;;;;;;;;4954599;29;20027;-68
2023/10/14 13:02:53;;;;;;;10.95;6.07;;;;;;;;;;4954230;29;20031;-69
2023/10/14 13:05:20;;;;;;;15.98;6.88;;;;;;;;;;4954370;29;20468;-72
2023/10/14 13:07:52;;;;;;;8.95;6.30;;;;;;;;;;4954326;29;20460;-71
2023/10/14 13:10:25;;;;;;;12.95;6.13;;;;;;;;;;4954262;29;20042;-71
2023/10/14 13:12:56;;;;;;;12.27;6.00;;;;;;;;;;4954113;29;20524;-71
2023/10/14 13:15:29;;;;;;;13.80;6.03;;;;;;;;;;4954387;29;20031;-71
2023/10/14 13:18:00;;;;;;;10.98;6.05;;;;;;;;;;4954158;29;20027;-71
2023/10/14 13:20:30;;;;;;;11.27;6.72;;;;;;;;;;4954160;28;20074;-71
2023/10/14 13:22:58;;;;;;;;;;;;;;;;;;4954657;29;20051;-72
2023/10/14 13:25:24;;;;;;;11.27;6.03;;;;;;;;;;4953980;29;19961;-70
2023/10/14 13:27:51;;;;;;;9.48;6.10;;;;;;;;;;4956480;28;20370;-72
2023/10/14 13:30:24;;;;;;;8.73;6.13;;;;;;;;;;4958095;29;20038;-70
2023/10/14 13:32:56;;;;;;;15.98;6.05;;;;;;;;;;4957819;29;20122;-70
2023/10/14 13:35:23;;;;;;;16.70;6.15;;;;;;;;;;4957699;29;20038;-70
2023/10/14 13:37:49;;;;;;;16.52;5.90;;;;;;;;;;4957835;28;20031;-71
2023/10/14 13:40:23;;;;;;;9.20;5.68;;;;;;;;;;4969199;28;20023;-71
2023/10/14 13:42:50;;;;;;;9.88;5.55;;;;;;;;;;4973203;28;20047;-71
2023/10/14 13:45:16;;;;;;;17.27;6.13;;;;;;;;;;4996227;28;20164;-69
2023/10/14 13:47:43;;;;;;;10.35;6.07;;;;;;;;;;4996293;28;20034;-70
2023/10/14 13:50:20;;;;;;;10.63;5.72;;;;;;;;;;4996236;28;20022;-71
2023/10/14 13:52:55;;;;;;;10.30;5.40;;;;;;;;;;4988177;28;20438;-72
2023/10/14 13:55:24;;;;;;;12.13;5.60;;;;;;;;;;4977066;28;20035;-70
2023/10/14 13:57:51;;;;;;;11.77;6.15;;;;;;;;;;4976799;28;20027;-72
2023/10/14 14:00:44;;;;;;;8.40;5.78;;;;;;;;;;4987467;28;20049;-71
2023/10/14 14:03:08;;;;;;;;;;;;;;;;;;4995686;28;20100;-70
2023/10/14 14:05:34;;;;;;;12.55;5.35;;;;;;;;;;4996191;28;19914;-70
2023/10/14 14:08:01;;;;;;;15.48;5.95;;;;;;;;;;4995820;28;20474;-71
2023/10/14 14:10:26;;;;;;;9.73;5.63;;;;;;;;;;4995948;28;20088;-68
2023/10/14 14:12:54;;;;;;;13.95;5.70;;;;;;;;;;4995750;28;20050;-66
2023/10/14 14:15:22;;;;;;;13.70;6.00;;;;;;;;;;4995780;28;20089;-68
2023/10/14 14:17:48;;;;;;;10.02;5.72;;;;;;;;;;4977941;28;20430;-69
2023/10/14 14:20:15;;;;;;;8.38;5.53;;;;;;;;;;4976251;28;20023;-68
2023/10/14 14:22:44;;;;;;;9.93;5.72;;;;;;;;;;4976162;28;20030;-68
2023/10/14 14:25:12;;;;;;;16.75;5.30;;;;;;;;;;4976306;28;20018;-68
2023/10/14 14:27:39;;;;;;;7.95;5.43;;;;;;;;;;4976149;28;20475;-68
2023/10/14 14:30:07;;;;;;;12.35;5.15;;;;;;;;;;4976193;28;20500;-67
2023/10/14 14:32:38;;;;;;;9.55;5.43;;;;;;;;;;4976163;28;20027;-67
2023/10/14 14:35:11;;;;;;;12.82;6.07;;;;;;;;;;4976112;28;20023;-67
2023/10/14 14:37:40;;;;;;;11.68;5.28;;;;;;;;;;4976071;28;20030;-69
2023/10/14 14:40:14;;;;;;;13.30;5.78;;;;;;;;;;4993229;28;20030;-68
2023/10/14 14:42:46;;;;;;;8.02;5.45;;;;;;;;;;4994823;28;20030;-66
2023/10/14 14:45:22;;;;;;;15.80;5.53;;;;;;;;;;4995249;28;20041;-67
2023/10/14 14:47:49;;;;;;;13.68;5.72;;;;;;;;;;4995349;28;20026;-66
2023/10/14 14:50:16;;;;;;;10.60;5.97;;;;;;;;;;4977656;28;20383;-67
2023/10/14 14:52:42;;;;;;;11.77;5.38;;;;;;;;;;4977671;28;20030;-74
2023/10/14 14:55:09;;;;;;;11.05;5.97;;;;;;;;;;4995253;28;20022;-70
2023/10/14 14:57:38;;;;;;;11.65;5.28;;;;;;;;;;4995294;28;20054;-69
2023/10/14 15:00:14;;;;;;;10.95;5.03;;;;;;;;;;4990128;28;20026;-72
2023/10/14 15:02:42;;;;;;;9.57;5.45;;;;;;;;;;4975407;28;20476;-71
2023/10/14 15:05:10;;;;;;;8.18;5.55;;;;;;;;;;4975384;28;20029;-71
2023/10/14 15:07:36;;;;;;;9.18;5.43;;;;;;;;;;4975422;28;20054;-70
2023/10/14 15:10:04;;;;;;;13.13;6.00;;;;;;;;;;4975581;28;20019;-70
2023/10/14 15:12:32;;;;;;;9.65;5.88;;;;;;;;;;4985605;28;20471;-72
2023/10/14 15:14:59;;;;;;;6.57;5.25;;;;;;;;;;4994741;28;20026;-72
2023/10/14 15:17:24;;;;;;;14.88;6.20;;;;;;;;;;4994686;28;20046;-70
2023/10/14 15:19:50;;;;;;;14.00;5.90;;;;;;;;;;4994750;28;20356;-70
2023/10/14 15:22:16;;;;;;;10.52;5.90;;;;;;;;;;4992776;28;20053;-71
2023/10/14 15:24:42;;;;;;;14.63;6.20;;;;;;;;;;4987891;28;20049;-71
2023/10/14 15:27:08;;;;;;;9.10;6.20;;;;;;;;;;4994381;28;20455;-71
2023/10/14 15:29:34;;;;;;;8.88;6.20;;;;;;;;;;4994379;28;20022;-69
2023/10/14 15:32:00;;;;;;;9.30;5.82;;;;;;;;;;4994293;28;20126;-70
2023/10/14 15:34:28;;;;;;;9.75;5.97;;;;;;;;;;4994197;28;20022;-72
2023/10/14 15:36:57;;;;;;;12.02;5.65;;;;;;;;;;4994297;28;20486;-71
2023/10/14 15:39:33;;;;;;;12.43;6.20;;;;;;;;;;4990925;28;20109;-71
2023/10/14 15:42:00;;;;;;;12.05;6.30;;;;;;;;;;4974788;28;20339;-72
2023/10/14 15:44:26;;;;;;;13.00;6.47;;;;;;;;;;4975278;28;20035;-80
2023/10/14 15:46:52;;;;;;;14.45;6.47;;;;;;;;;;4974605;28;20537;-72
2023/10/14 15:49:19;;;;;;;9.52;5.70;;;;;;;;;;4974532;28;20065;-73
2023/10/14 15:51:44;;;;;;;14.38;6.10;;;;;;;;;;4981625;28;20034;-72
2023/10/14 15:54:13;;;;;;;11.10;6.18;;;;;;;;;;4985218;28;20038;-73
2023/10/14 15:56:39;;;;;;;15.07;6.13;;;;;;;;;;4981080;28;20395;-72
2023/10/14 15:59:06;;;;;;;10.85;5.85;;;;;;;;;;4983430;28;20029;-72
2023/10/14 16:01:34;;;;;;;16.83;6.15;;;;;;;;;;4976901;28;20029;-73
2023/10/14 16:04:04;;;;;;;10.45;5.72;;;;;;;;;;4974297;28;20637;-75
2023/10/14 16:06:30;;;;;;;9.60;5.43;;;;;;;;;;4974819;28;20027;-73
2023/10/14 16:08:57;;;;;;;8.23;5.88;;;;;;;;;;4974259;28;20031;-72
2023/10/14 16:11:23;;;;;;;10.85;6.15;;;;;;;;;;4974281;28;20033;-72
2023/10/14 16:13:49;;;;;;;9.68;6.03;;;;;;;;;;4974478;28;20051;-73
2023/10/14 16:16:15;;;;;;;15.25;6.35;;;;;;;;;;4975591;28;20387;-76
2023/10/14 16:18:41;;;;;;;9.80;6.03;;;;;;;;;;4978022;28;20045;-72
2023/10/14 16:21:09;;;;;;;11.57;6.20;;;;;;;;;;4995169;28;20458;-74
2023/10/14 16:23:34;;;;;;;13.52;5.97;;;;;;;;;;4993927;28;20092;-73
2023/10/14 16:26:00;;;;;;;15.88;6.55;;;;;;;;;;4994881;28;20026;-74
2023/10/14 16:28:26;;;;;;;17.98;6.85;;;;;;;;;;4985973;28;20204;-67
2023/10/14 16:30:51;;;;;;;10.20;6.03;;;;;;;;;;4992585;28;20030;-66
2023/10/14 16:33:17;;;;;;;7.38;5.47;;;;;;;;;;4993561;28;20030;-67
2023/10/14 16:35:42;;;;;;;10.27;6.38;;;;;;;;;;4985704;28;20029;-68
2023/10/14 16:38:09;;;;;;;10.73;5.78;;;;;;;;;;4956505;28;20403;-68
2023/10/14 16:40:36;;;;;;;10.13;6.35;;;;;;;;;;4973847;28;20026;-69
2023/10/14 16:43:03;;;;;;;11.13;6.80;;;;;;;;;;4973661;28;20041;-68
2023/10/14 16:45:35;;;;;;;12.32;6.68;;;;;;;;;;4973784;28;20490;-69
2023/10/14 16:48:07;;;;;;;9.02;6.05;;;;;;;;;;4973753;28;20018;-68
2023/10/14 16:50:34;;;;;;;11.60;6.28;;;;;;;;;;4979501;28;20039;-68
2023/10/14 16:53:00;;;;;;;9.93;6.22;;;;;;;;;;4983916;28;20057;-69
2023/10/14 16:55:27;;;;;;;12.15;6.30;;;;;;;;;;4982129;28;20107;-68
2023/10/14 16:57:55;;;;;;;12.50;6.03;;;;;;;;;;4982938;28;20053;-68
2023/10/14 17:00:22;;;;;;;7.72;6.20;;;;;;;;;;4982723;28;20037;-67
2023/10/14 17:02:52;;;;;;;10.45;5.85;;;;;;;;;;4983470;28;20110;-69
2023/10/14 17:05:21;;;;;;;9.02;5.93;;;;;;;;;;4990144;28;20019;-67
2023/10/14 17:07:48;;;;;;;12.77;6.68;;;;;;;;;;4986376;28;20027;-68
2023/10/14 17:10:15;;;;;;;11.00;6.15;;;;;;;;;;4989188;28;20101;-69
2023/10/14 17:12:46;;;;;;;8.68;6.32;;;;;;;;;;4989691;28;20050;-67
2023/10/14 17:15:20;;;;;;;11.57;6.63;;;;;;;;;;4972163;28;20090;-68
2023/10/14 17:17:46;;;;;;;7.82;5.70;;;;;;;;;;4986415;28;20019;-69
2023/10/14 17:20:13;;;;;;;10.13;6.25;;;;;;;;;;4988734;28;20037;-68
2023/10/14 17:22:40;;;;;;;9.05;6.75;;;;;;;;;;4989848;28;20081;-69
2023/10/14 17:25:14;;;;;;;9.45;7.03;;;;;;;;;;4988571;28;20019;-68
2023/10/14 17:27:40;;;;;;;11.38;6.45;;;;;;;;;;4987971;28;20050;-69
2023/10/14 17:30:11;;;;;;;9.45;6.22;;;;;;;;;;4989729;28;20020;-67
2023/10/14 17:32:38;;;;;;;9.70;6.50;;;;;;;;;;4989943;28;20031;-69
2023/10/14 17:35:13;;;;;;;10.60;6.50;;;;;;;;;;4985598;28;20386;-67
2023/10/14 17:37:43;;;;;;;9.27;6.43;;;;;;;;;;4985356;28;20050;-67
2023/10/14 17:40:17;;;;;;;10.00;7.10;;;;;;;;;;4977693;28;20386;-68
2023/10/14 17:42:47;;;;;;;8.70;6.47;;;;;;;;;;4999388;28;20077;-66
2023/10/14 17:45:14;;;;;;;11.15;6.57;;;;;;;;;;4999175;28;20467;-67
2023/10/14 17:47:41;;;;;;;9.73;6.78;;;;;;;;;;4998635;28;20105;-67
2023/10/14 17:50:07;;;;;;;10.18;6.72;;;;;;;;;;4998459;28;20076;-67
2023/10/14 17:52:33;;;;;;;11.20;7.03;;;;;;;;;;4998154;28;20026;-67
2023/10/14 17:55:10;;;;;;;10.60;6.45;;;;;;;;;;4997958;28;20501;-68
2023/10/14 17:57:41;;;;;;;8.13;6.90;;;;;;;;;;4998251;28;20034;-67
2023/10/14 18:00:16;;;;;;;11.27;6.90;;;;;;;;;;4998224;28;20463;-67
2023/10/14 18:02:44;;;;;;;10.38;7.38;;;;;;;;;;4998336;28;20037;-68
2023/10/14 18:05:09;;;;;;;11.50;6.65;;;;;;;;;;4998257;28;20375;-68
2023/10/14 18:07:40;;;;;;;8.13;6.55;;;;;;;;;;4999012;28;20023;-67
2023/10/14 18:10:06;;;;;;;11.80;6.90;;;;;;;;;;4998957;28;20022;-67
2023/10/14 18:12:38;;;;;;;10.27;7.35;;;;;;;;;;4998701;28;20423;-68
2023/10/14 18:15:14;;;;;;;10.77;6.75;;;;;;;;;;4995957;28;20026;-66
2023/10/14 18:17:46;;;;;;;12.70;7.40;;;;;;;;;;4995992;28;20033;-66
2023/10/14 18:20:17;;;;;;;13.05;6.60;;;;;;;;;;4995867;28;20040;-67
2023/10/14 18:22:46;;;;;;;8.02;6.60;;;;;;;;;;4995651;28;20054;-67
2023/10/14 18:25:19;;;;;;;9.02;6.43;;;;;;;;;;4995792;28;20026;-68
2023/10/14 18:27:45;;;;;;;9.90;6.47;;;;;;;;;;4995949;28;20029;-66
2023/10/14 18:30:20;;;;;;;11.00;6.70;;;;;;;;;;4995553;28;20026;-67
2023/10/14 18:32:50;;;;;;;10.07;6.90;;;;;;;;;;4995627;28;20018;-66
2023/10/14 18:35:16;;;;;;;;;;;;;;;;;;4995978;28;20031;-67
2023/10/14 18:37:50;;;;;;;8.05;6.55;;;;;;;;;;4995453;28;19914;-66
2023/10/14 18:40:19;;;;;;;11.73;6.50;;;;;;;;;;4995710;28;20046;-68
2023/10/14 18:42:48;;;;;;;9.15;6.55;;;;;;;;;;4995538;28;20113;-67
2023/10/14 18:45:18;;;;;;;7.95;6.80;;;;;;;;;;4995237;28;20030;-67
2023/10/14 18:47:48;;;;;;;9.50;6.85;;;;;;;;;;4995357;28;20057;-67
2023/10/14 18:50:18;;;;;;;8.00;6.75;;;;;;;;;;4995300;28;20026;-67
2023/10/14 18:52:45;;;;;;;7.65;6.53;;;;;;;;;;4995192;28;20034;-66
2023/10/14 18:55:16;;;;;;;7.57;6.50;;;;;;;;;;4995161;28;20034;-68
2023/10/14 18:57:49;;;;;;;9.30;6.93;;;;;;;;;;4995229;28;20100;-68
2023/10/14 19:00:19;;;;;;;7.75;6.32;;;;;;;;;;4995009;28;20092;-67
2023/10/14 19:02:53;;;;;;;8.95;6.50;;;;;;;;;;4995020;28;20027;-67
2023/10/14 19:05:19;;;;;;;8.70;6.65;;;;;;;;;;4995070;28;20387;-67
2023/10/14 19:07:45;;;;;;;8.57;6.30;;;;;;;;;;4994852;28;20022;-67
2023/10/14 19:10:15;;;;;;;9.93;6.80;;;;;;;;;;4995136;28;20022;-67
2023/10/14 19:12:45;;;;;;;9.40;6.72;;;;;;;;;;4994619;28;20046;-67
2023/10/14 19:15:13;;;;;;;7.40;6.20;;;;;;;;;;4994739;28;20033;-67
2023/10/14 19:17:40;;;;;;;9.98;7.05;;;;;;;;;;4995188;28;20023;-67
2023/10/14 19:20:16;;;;;;;8.80;6.78;;;;;;;;;;4994863;28;20087;-67
2023/10/14 19:23:08;;;;;;;8.50;6.72;;;;;;;;;;4994611;28;20080;-66
2023/10/14 19:25:39;;;;;;;9.57;7.15;;;;;;;;;;4983586;28;20045;-68
2023/10/14 19:28:09;;;;;;;10.75;6.90;;;;;;;;;;4994758;28;20038;-67
2023/10/14 19:30:39;;;;;;;8.68;7.03;;;;;;;;;;4994495;28;20027;-67
2023/10/14 19:33:06;;;;;;;9.45;7.20;;;;;;;;;;4994416;28;20153;-66
2023/10/14 19:35:32;;;;;;;7.20;6.07;;;;;;;;;;4994323;28;20026;-67
2023/10/14 19:37:58;;;;;;;9.02;6.63;;;;;;;;;;4994362;28;20033;-66
2023/10/14 19:40:24;;;;;;;9.35;6.80;;;;;;;;;;4994221;28;20030;-68
2023/10/14 19:42:53;;;;;;;10.23;6.70;;;;;;;;;;4994041;28;20475;-67
2023/10/14 19:45:20;;;;;;;7.72;6.53;;;;;;;;;;4994161;28;20030;-68
2023/10/14 19:47:46;;;;;;;8.82;6.65;;;;;;;;;;4994125;28;20029;-67
2023/10/14 19:50:15;;;;;;;8.90;6.82;;;;;;;;;;4994097;28;20054;-66
2023/10/14 19:52:42;;;;;;;8.27;6.65;;;;;;;;;;4990166;28;20022;-65
2023/10/14 19:55:21;;;;;;;11.38;6.82;;;;;;;;;;4983577;28;20117;-66
2023/10/14 19:57:57;;;;;;;9.48;7.05;;;;;;;;;;4981879;28;20034;-66
2023/10/14 20:00:26;;;;;;;11.25;7.00;;;;;;;;;;4981036;28;20050;-66
2023/10/14 20:02:53;;;;;;;7.32;6.40;;;;;;;;;;4984328;28;20532;-66
2023/10/14 20:05:19;;;;;;;8.20;7.03;;;;;;;;;;4983347;28;20034;-66
2023/10/14 20:07:52;;;;;;;10.65;6.82;;;;;;;;;;4982986;28;20037;-67
2023/10/14 20:10:22;;;;;;;10.15;7.07;;;;;;;;;;4983643;28;20058;-66
2023/10/14 20:12:51;;;;;;;9.07;7.35;;;;;;;;;;4983576;28;20058;-65
2023/10/14 20:15:20;;;;;;;10.48;7.47;;;;;;;;;;4980164;28;20035;-65
2023/10/14 20:17:51;;;;;;;11.18;7.93;;;;;;;;;;4983219;28;20034;-66
2023/10/14 20:20:16;;;;;;;9.25;6.60;;;;;;;;;;4991254;28;20034;-66
2023/10/14 20:22:44;;;;;;;9.70;6.35;;;;;;;;;;4993394;28;20026;-66
2023/10/14 20:25:10;;;;;;;9.60;6.93;;;;;;;;;;4993363;28;20439;-65
2023/10/14 20:27:35;;;;;;;8.27;6.82;;;;;;;;;;4993472;28;20022;-66
2023/10/14 20:30:08;;;;;;;8.85;7.15;;;;;;;;;;4993362;28;20027;-66
2023/10/14 20:32:34;;;;;;;8.57;6.78;;;;;;;;;;4993638;28;20139;-67
2023/10/14 20:35:00;;;;;;;9.45;6.75;;;;;;;;;;4993344;28;20101;-64
2023/10/14 20:37:26;;;;;;;8.77;6.72;;;;;;;;;;4992517;28;20157;-66
2023/10/14 20:39:52;;;;;;;9.38;6.93;;;;;;;;;;4993209;28;20022;-65
2023/10/14 20:42:17;;;;;;;8.07;6.70;;;;;;;;;;4993527;28;20037;-66
2023/10/14 20:44:43;;;;;;;10.52;7.70;;;;;;;;;;4993072;28;20475;-65
2023/10/14 20:47:08;;;;;;;9.18;6.90;;;;;;;;;;4993373;28;20073;-65
2023/10/14 20:49:34;;;;;;;8.18;6.78;;;;;;;;;;4993351;28;20029;-65
2023/10/14 20:52:00;;;;;;;9.80;7.05;;;;;;;;;;4993111;28;20106;-65
2023/10/14 20:54:25;;;;;;;7.45;6.75;;;;;;;;;;4992970;28;20040;-66
2023/10/14 20:56:52;;;;;;;8.13;6.50;;;;;;;;;;4992991;28;20105;-65
2023/10/14 20:59:18;;;;;;;10.38;6.68;;;;;;;;;;4993032;28;20026;-64
2023/10/14 21:01:44;;;;;;;9.57;7.00;;;;;;;;;;4993287;28;20120;-65
2023/10/14 21:04:09;;;;;;;10.50;6.63;;;;;;;;;;4992943;28;20030;-65
2023/10/14 21:06:38;;;;;;;8.52;7.03;;;;;;;;;;4975628;28;20062;-66
2023/10/14 21:09:05;;;;;;;8.25;6.63;;;;;;;;;;4993162;28;20030;-65
2023/10/14 21:11:32;;;;;;;7.95;6.63;;;;;;;;;;4992934;28;20114;-65
2023/10/14 21:13:58;;;;;;;8.85;6.68;;;;;;;;;;4992664;28;20522;-66
2023/10/14 21:16:24;;;;;;;9.05;6.75;;;;;;;;;;4992896;28;20034;-66
2023/10/14 21:18:52;;;;;;;9.45;6.65;;;;;;;;;;4993040;28;20027;-66
2023/10/14 21:21:18;;;;;;;9.77;7.18;;;;;;;;;;4992776;28;20031;-65
2023/10/14 21:23:46;;;;;;;10.45;6.53;;;;;;;;;;4992821;28;20046;-65
2023/10/14 21:26:12;;;;;;;9.00;6.57;;;;;;;;;;4992740;28;20394;-65
2023/10/14 21:28:38;;;;;;;8.43;6.70;;;;;;;;;;4965908;28;20519;-66
2023/10/14 21:31:10;;;;;;;10.32;7.63;;;;;;;;;;4980653;28;20062;-66
2023/10/14 21:33:35;;;;;;;8.60;6.47;;;;;;;;;;4982298;28;20105;-66
2023/10/14 21:36:01;;;;;;;7.85;6.63;;;;;;;;;;4982615;28;20571;-66
2023/10/14 21:38:26;;;;;;;8.52;6.57;;;;;;;;;;4980851;28;20057;-67
2023/10/14 21:40:52;;;;;;;8.57;6.70;;;;;;;;;;4982000;28;20379;-67
2023/10/14 21:43:19;;;;;;;7.10;6.38;;;;;;;;;;4981828;28;20093;-66
2023/10/14 21:45:45;;;;;;;9.23;7.63;;;;;;;;;;4980469;28;20023;-67
2023/10/14 21:48:10;;;;;;;8.35;6.85;;;;;;;;;;4983433;28;20018;-68
2023/10/14 21:50:37;;;;;;;8.23;7.00;;;;;;;;;;4967941;28;20365;-67
2023/10/14 21:53:04;;;;;;;9.07;6.40;;;;;;;;;;4984572;28;20386;-65
2023/10/14 21:55:32;;;;;;;7.97;6.75;;;;;;;;;;4982188;28;20034;-66
2023/10/14 21:57:58;;;;;;;8.98;7.00;;;;;;;;;;4984843;28;20026;-66
2023/10/14 22:03:12;;;;;;;8.65;7.07;;;;;;;;;;4945014;28;20133;-67
2023/10/14 22:05:39;;;;;;;9.25;7.13;;;;;;;;;;4985336;28;20102;-69
2023/10/14 22:08:10;;;;;;;7.72;6.47;;;;;;;;;;4969515;28;20058;-71
2023/10/14 22:10:37;;;;;;;10.02;6.78;;;;;;;;;;4962562;28;20055;-69
2023/10/14 22:13:05;;;;;;;8.98;6.45;;;;;;;;;;4964469;28;20130;-68
2023/10/14 22:15:32;;;;;;;8.48;6.88;;;;;;;;;;4976146;28;20078;-69
2023/10/14 22:18:00;;;;;;;8.48;7.13;;;;;;;;;;4981432;28;20045;-69
2023/10/14 22:20:30;;;;;;;7.25;6.50;;;;;;;;;;4981774;28;20023;-69
2023/10/14 22:22:56;;;;;;;;;;;;;;;;;;4984901;28;20019;-69
2023/10/14 22:25:21;;;;;;;7.78;6.63;;;;;;;;;;4984342;28;19918;-69
2023/10/14 22:27:51;;;;;;;9.45;6.47;;;;;;;;;;4989081;28;20026;-69
2023/10/14 22:30:19;;;;;;;7.43;6.13;;;;;;;;;;4995447;28;20051;-69
2023/10/14 22:32:46;;;;;;;8.70;6.43;;;;;;;;;;4995287;28;20038;-69
2023/10/14 22:35:18;;;;;;;8.18;6.75;;;;;;;;;;4995349;28;20026;-69
2023/10/14 22:37:44;;;;;;;7.35;6.32;;;;;;;;;;4994096;28;20479;-69
2023/10/14 22:40:23;;;;;;;9.70;7.07;;;;;;;;;;4994321;28;20021;-69
2023/10/14 22:42:49;;;;;;;7.90;6.47;;;;;;;;;;4994081;28;20379;-69
2023/10/14 22:45:19;;;;;;;8.20;6.20;;;;;;;;;;4993564;28;20025;-69
2023/10/14 22:47:46;;;;;;;7.78;6.60;;;;;;;;;;4994370;28;20026;-69
2023/10/14 22:50:15;;;;;;;7.95;6.57;;;;;;;;;;4993504;28;20472;-69
2023/10/14 22:52:42;;;;;;;7.13;6.38;;;;;;;;;;4993285;28;20104;-69
2023/10/14 22:55:10;;;;;;;8.63;6.60;;;;;;;;;;4993583;28;20030;-69
2023/10/14 22:57:38;;;;;;;10.18;6.72;;;;;;;;;;4993681;28;20113;-69
2023/10/14 23:00:11;;;;;;;9.63;6.60;;;;;;;;;;4992864;28;20030;-69
2023/10/14 23:02:48;;;;;;;8.52;5.80;;;;;;;;;;4993243;28;20108;-69
2023/10/14 23:05:16;;;;;;;8.45;6.40;;;;;;;;;;4994525;28;20018;-69
2023/10/14 23:07:46;;;;;;;8.40;6.43;;;;;;;;;;4994919;28;20022;-69